ISR826 EYVI-LLBG
Flight info
| Callsign | ISR826 |
|---|---|
| Flight time | N/A |
| Altitude | 36000 |
| Route | UPASI DCT VABER L735 SUWGI M857 PODAN DCT GONPI DCT ARGES DCT RIXEN UN616 IST UT35 AYT UM855 TOMBI DCT PIKOG L609 ZUKKO |
| Aircraft | A320/M-SDE2FGHIJ1LORVWY/SB1 |
Departure
| Time | 2026-05-07 17:09 |
|---|---|
| Airport | Vilnius International Airport (EYVI) |
Arrival
| Time | N/A |
|---|---|
| Airport | Ben Gurion International Airport (LLBG) |
| Time | Latitude | Longitude | Altitude | Speed | Heading |
|---|---|---|---|---|---|
| 2026-05-07 16:54 | 54.64246 | 25.28281 | 642 ft | 0 kts | 0° |
| 2026-05-07 17:02 | 54.64232 | 25.28281 | 641 ft | 4 kts | 356° |
| 2026-05-07 17:03 | 54.64206 | 25.28288 | 643 ft | 4 kts | 339° |
| 2026-05-07 17:03 | 54.64186 | 25.28310 | 639 ft | 4 kts | 294° |
| 2026-05-07 17:03 | 54.64183 | 25.28333 | 641 ft | 1 kts | 259° |
| 2026-05-07 17:03 | 54.64184 | 25.28336 | 639 ft | 0 kts | 259° |
| 2026-05-07 17:05 | 54.64180 | 25.28305 | 641 ft | 11 kts | 259° |
| 2026-05-07 17:05 | 54.64138 | 25.28163 | 637 ft | 15 kts | 188° |
| 2026-05-07 17:06 | 54.64032 | 25.28199 | 636 ft | 17 kts | 168° |
| 2026-05-07 17:06 | 54.63916 | 25.28240 | 639 ft | 19 kts | 166° |
| 2026-05-07 17:06 | 54.63772 | 25.28298 | 632 ft | 24 kts | 167° |
| 2026-05-07 17:06 | 54.63603 | 25.28365 | 620 ft | 24 kts | 172° |
| 2026-05-07 17:07 | 54.63378 | 25.28245 | 610 ft | 42 kts | 202° |
| 2026-05-07 17:07 | 54.63106 | 25.28057 | 608 ft | 43 kts | 202° |
| 2026-05-07 17:07 | 54.62824 | 25.27860 | 601 ft | 44 kts | 202° |
| 2026-05-07 17:07 | 54.62556 | 25.27672 | 603 ft | 28 kts | 203° |
| 2026-05-07 17:08 | 54.62462 | 25.27740 | 611 ft | 15 kts | 143° |
| 2026-05-07 17:08 | 54.62406 | 25.27851 | 609 ft | 10 kts | 102° |
| 2026-05-07 17:08 | 54.62458 | 25.27917 | 602 ft | 15 kts | 21° |
| 2026-05-07 17:08 | 54.62766 | 25.28128 | 598 ft | 83 kts | 21° |
| 2026-05-07 17:09 | 54.63467 | 25.28612 | 613 ft | 134 kts | 21° |
| 2026-05-07 17:09 | 54.64438 | 25.29241 | 892 ft | 154 kts | 18° |
| 2026-05-07 17:09 | 54.65463 | 25.29906 | 1369 ft | 165 kts | 18° |
| 2026-05-07 17:09 | 54.66601 | 25.30616 | 1792 ft | 186 kts | 18° |
| 2026-05-07 17:10 | 54.67881 | 25.31425 | 2195 ft | 207 kts | 20° |
| 2026-05-07 17:10 | 54.69287 | 25.32425 | 2646 ft | 224 kts | 21° |
| 2026-05-07 17:10 | 54.70753 | 25.33512 | 3306 ft | 235 kts | 20° |
| 2026-05-07 17:10 | 54.72287 | 25.34642 | 3986 ft | 244 kts | 21° |
| 2026-05-07 17:11 | 54.73875 | 25.35788 | 4712 ft | 251 kts | 20° |